Costa Serena — ICAZ — position and weather

sailwx.info

Track history (hours):
 
Tides and Currents Weather Stations Pressure Air Temp Water Temp Dewpoint Dewpoint Depression Visibility Wind Speed Wind Dir Waves Ship Positions

Costa Serena

Last reported at 2020-Sep-18 06:43 UTC. Time now 2020-Oct-01 07:58 UTC.
Position N 01°27' E 104°32'.
Warning: this ship's position is 13 days out of date.

Length 290 m; draft 8.3 m.

Type: Ship. MMSI: 247187600.

Date/timePositionNaut miles runAvg speedWind from/ knotsBaromVisibWave heightAir tempDewpointWater temp
2020-Sep-18 06:43N 01°27' E 104°32'1810.5
2020-Sep-18 04:59N 01°17' E 104°17'13 6.6
2020-Sep-18 03:01N 01°19' E 104°04'1 0.3
2020-Sep-18 01:19N 01°20' E 104°04'0 0.0
2020-Sep-18 00:57N 01°20' E 104°04'0 0.0
2020-Sep-17 19:28N 01°20' E 104°04'0 0.0
2020-Sep-17 17:00N 01°20' E 104°04'0 0.0
2020-Sep-17 15:29N 01°20' E 104°04'0 0.0
2020-Sep-17 14:29N 01°20' E 104°04'0 0.0
2020-Sep-17 11:55N 01°20' E 104°04'0 0.0
2020-Sep-17 07:53N 01°20' E 104°04'0 0.0
2020-Sep-17 07:29N 01°20' E 104°04'0 0.1
2020-Sep-17 06:59N 01°20' E 104°04'0 0.1
2020-Sep-17 06:29N 01°20' E 104°04'6 1.9
2020-Sep-17 03:30N 01°17' E 104°09'4 7.7
2020-Sep-17 03:00N 01°18' E 104°13'57 8.4
2020-Sep-16 20:12N 01°57' E 104°54'  
2020-Sep-13 14:18N 01°51' E 104°30'0 0.0
2020-Sep-13 08:12N 01°51' E 104°30'  
Track history (hours):
 
Tides and Currents Weather Stations Pressure Air Temp Water Temp Dewpoint Dewpoint Depression Visibility Wind Speed Wind Dir Waves Ship Positions

Costa Serena

Last reported at 2020-Sep-18 06:43 UTC. Time now 2020-Oct-01 07:58 UTC.
Position N 01°27' E 104°32'.
Warning: this ship's position is 13 days out of date.

Length 290 m; draft 8.3 m.

Type: Ship. MMSI: 247187600.

Date/timePositionNaut miles runAvg speedWind from/ knotsBaromVisibWave heightAir tempDewpointWater temp
2020-Sep-18 06:43N 01°27' E 104°32'1810.5
2020-Sep-18 04:59N 01°17' E 104°17'13 6.6
2020-Sep-18 03:01N 01°19' E 104°04'1 0.3
2020-Sep-18 01:19N 01°20' E 104°04'0 0.0
2020-Sep-18 00:57N 01°20' E 104°04'0 0.0
2020-Sep-17 19:28N 01°20' E 104°04'0 0.0
2020-Sep-17 17:00N 01°20' E 104°04'0 0.0
2020-Sep-17 15:29N 01°20' E 104°04'0 0.0
2020-Sep-17 14:29N 01°20' E 104°04'0 0.0
2020-Sep-17 11:55N 01°20' E 104°04'0 0.0
2020-Sep-17 07:53N 01°20' E 104°04'0 0.0
2020-Sep-17 07:29N 01°20' E 104°04'0 0.1
2020-Sep-17 06:59N 01°20' E 104°04'0 0.1
2020-Sep-17 06:29N 01°20' E 104°04'6 1.9
2020-Sep-17 03:30N 01°17' E 104°09'4 7.7
2020-Sep-17 03:00N 01°18' E 104°13'57 8.4
2020-Sep-16 20:12N 01°57' E 104°54'  
2020-Sep-13 14:18N 01°51' E 104°30'0 0.0
2020-Sep-13 08:12N 01°51' E 104°30'  

Dump ship's entire track history